Harper, West Virginia
Current Conditions -  °F | °C
As of 9:01 AM on Wednesday 26 Nov 2014 (Local Time) from KBKW Reporting Station
Light Snow Light Snow  
Wind Chill:   Ceiling: 1100
Heat Index:   Visibility: 0.75mi
Dew Point: -1°   Wind: 0mph
Humidity: 92%   Direction: NA
Pressure: 30"   Gusts: NA
Location:  37.8°N, 81.26°W
Report Text: KBKW 261401Z AUTO 00000KT 3/4SM -SN BR VV011 01/M01 A3000 RMK AO2 P0001 T00061006
Loading
Personal Weather Stations






























Interactive Weather Map New forecast layout! Learn more

10-Day Weather Forecast

Advertisements
Track Severe Weather on mobile